Time;durP1;ratioP1;P1;durP2;ratioP2;P2;SDS_P1;SDS_P2;PMS_P1;PMS_P2;Temp;Humidity;BMP_temperature;BMP_pressure;BME280_temperature;BME280_humidity;BME280_pressure;Samples;Min_cycle;Max_cycle;Signal;HPM_P1;HPM_P2
2023/06/26 00:02:16;;;;;;;12.65;9.02;;;16.30;99.90;;;;;;4992050;28;20046;-77
2023/06/26 00:04:43;;;;;;;11.25;9.32;;;16.30;99.90;;;;;;4991439;28;20034;-77
2023/06/26 00:07:09;;;;;;;12.57;8.63;;;16.30;99.90;;;;;;4990982;28;20047;-77
2023/06/26 00:09:34;;;;;;;12.02;9.02;;;16.30;99.90;;;;;;4991142;28;20038;-76
2023/06/26 00:12:00;;;;;;;14.07;8.77;;;16.20;99.90;;;;;;4991746;28;20682;-77
2023/06/26 00:14:26;;;;;;;13.77;9.35;;;16.20;99.90;;;;;;4992302;28;20077;-77
2023/06/26 00:16:52;;;;;;;11.70;8.35;;;16.20;99.90;;;;;;4993605;28;20171;-77
2023/06/26 00:19:17;;;;;;;10.32;8.30;;;16.20;99.90;;;;;;4996045;28;20113;-77
2023/06/26 00:21:47;;;;;;;9.95;8.50;;;16.10;99.90;;;;;;4997019;28;20475;-77
2023/06/26 00:24:14;;;;;;;11.73;8.20;;;16.10;99.90;;;;;;4994585;28;20121;-77
2023/06/26 00:26:39;;;;;;;9.48;8.43;;;16.10;99.90;;;;;;4994118;28;20030;-77
2023/06/26 00:29:05;;;;;;;11.88;8.80;;;16.00;99.90;;;;;;4994388;28;20041;-76
2023/06/26 00:31:30;;;;;;;10.85;8.45;;;16.00;99.90;;;;;;4994246;28;20503;-76
2023/06/26 00:33:56;;;;;;;12.25;8.27;;;16.00;99.90;;;;;;4994092;28;20026;-77
2023/06/26 00:36:26;;;;;;;11.27;8.40;;;15.90;99.90;;;;;;4993572;28;20072;-76
2023/06/26 00:38:52;;;;;;;12.27;8.45;;;15.90;99.90;;;;;;4994628;28;20030;-77
2023/06/26 00:41:18;;;;;;;9.88;8.45;;;15.90;99.90;;;;;;4994360;28;20029;-77
2023/06/26 00:43:43;;;;;;;13.95;9.15;;;15.80;99.90;;;;;;4993995;28;20101;-77
2023/06/26 00:46:11;;;;;;;11.57;8.90;;;15.80;99.90;;;;;;4992921;28;20079;-77
2023/06/26 00:48:38;;;;;;;10.52;8.73;;;15.80;99.90;;;;;;4995528;28;20058;-77
2023/06/26 00:51:04;;;;;;;11.35;8.38;;;15.80;99.90;;;;;;4994734;28;20510;-77
2023/06/26 00:53:31;;;;;;;10.95;8.85;;;15.70;99.90;;;;;;4993723;28;20092;-77
2023/06/26 00:55:56;;;;;;;11.35;8.60;;;15.70;99.90;;;;;;4993425;28;20101;-76
2023/06/26 00:58:24;;;;;;;11.60;9.05;;;15.60;99.90;;;;;;4994110;28;21418;-76
2023/06/26 01:00:51;;;;;;;11.55;8.55;;;15.60;99.90;;;;;;4994179;28;20025;-77
2023/06/26 01:03:17;;;;;;;10.48;8.85;;;15.50;99.90;;;;;;4994591;28;20085;-77
2023/06/26 01:05:45;;;;;;;10.32;7.85;;;15.50;99.90;;;;;;4993974;28;21548;-77
2023/06/26 01:08:12;;;;;;;10.30;8.70;;;15.50;99.90;;;;;;4993983;28;20042;-77
2023/06/26 01:10:38;;;;;;;12.15;8.45;;;15.40;99.90;;;;;;4993687;28;20558;-77
2023/06/26 01:13:04;;;;;;;11.20;8.63;;;15.30;99.90;;;;;;4993828;28;20044;-77
2023/06/26 01:15:29;;;;;;;11.50;8.70;;;15.30;99.90;;;;;;4994045;28;20038;-77
2023/06/26 01:17:59;;;;;;;10.98;8.30;;;15.30;99.90;;;;;;4994026;28;20030;-77
2023/06/26 01:20:25;;;;;;;12.32;8.93;;;15.20;99.90;;;;;;4994544;28;20105;-77
2023/06/26 01:23:22;;;;;;;10.02;8.60;;;15.20;99.90;;;;;;4992687;28;20044;-77
2023/06/26 01:26:19;;;;;;;10.70;8.50;;;15.20;99.90;;;;;;4992726;28;20809;-77
2023/06/26 01:28:45;;;;;;;11.02;7.75;;;15.10;99.90;;;;;;4992762;28;20126;-77
2023/06/26 01:31:12;;;;;;;11.05;9.13;;;15.10;99.90;;;;;;4993165;28;20053;-77
2023/06/26 01:33:39;;;;;;;13.70;9.48;;;15.10;99.90;;;;;;5024718;23;20025;-83
2023/06/26 01:36:06;;;;;;;13.32;9.20;;;15.10;99.90;;;;;;5041893;28;20068;-82
2023/06/26 01:38:31;;;;;;;11.60;8.48;;;15.10;99.90;;;;;;5059314;28;20088;-82
2023/06/26 01:40:57;;;;;;;13.57;9.07;;;15.10;99.90;;;;;;5059382;28;20072;-82
2023/06/26 01:43:38;;;;;;;11.63;7.88;;;15.00;99.90;;;;;;5059000;28;20119;-79
2023/06/26 01:46:30;;;;;;;10.50;8.38;;;15.00;99.90;;;;;;5056568;28;20039;-81
2023/06/26 01:49:03;;;;;;;10.98;9.00;;;15.00;99.90;;;;;;5054625;28;20081;-79
2023/06/26 01:51:35;;;;;;;10.70;8.35;;;14.90;99.90;;;;;;5046445;28;20055;-79
2023/06/26 01:54:02;;;;;;;11.52;8.20;;;14.90;99.90;;;;;;5047319;28;20086;-79
2023/06/26 01:56:29;;;;;;;11.50;8.10;;;14.90;99.90;;;;;;5046147;28;20048;-79
2023/06/26 01:58:55;;;;;;;12.15;7.75;;;14.90;99.90;;;;;;5047231;28;20029;-79
2023/06/26 02:01:21;;;;;;;12.30;8.20;;;14.90;99.90;;;;;;5044697;28;20044;-78
2023/06/26 02:03:47;;;;;;;12.23;9.20;;;14.90;99.90;;;;;;5047712;28;20746;-79
2023/06/26 02:06:13;;;;;;;10.98;8.48;;;14.80;99.90;;;;;;5045744;28;20033;-79
2023/06/26 02:08:38;;;;;;;11.40;8.20;;;14.90;99.90;;;;;;5047892;28;20040;-79
2023/06/26 02:11:04;;;;;;;9.57;7.63;;;14.80;99.90;;;;;;5047071;28;20047;-79
2023/06/26 02:13:29;;;;;;;11.32;7.60;;;14.80;99.90;;;;;;5045221;28;20040;-79
2023/06/26 02:15:55;;;;;;;10.70;8.02;;;14.80;99.90;;;;;;5045733;28;20028;-79
2023/06/26 02:18:22;;;;;;;11.30;8.30;;;14.70;99.90;;;;;;5047057;28;20028;-79
2023/06/26 02:20:48;;;;;;;11.57;8.43;;;14.80;99.90;;;;;;5044797;28;20025;-78
2023/06/26 02:23:14;;;;;;;10.70;8.40;;;14.70;99.90;;;;;;5045162;28;20107;-78
2023/06/26 02:25:39;;;;;;;10.30;8.43;;;14.70;99.90;;;;;;5046398;28;20035;-77
2023/06/26 02:28:05;;;;;;;12.18;7.60;;;14.70;99.90;;;;;;5047559;28;20043;-78
2023/06/26 02:30:30;;;;;;;8.77;7.68;;;14.70;99.90;;;;;;5045865;28;20033;-78
2023/06/26 02:32:56;;;;;;;10.18;7.82;;;14.70;99.90;;;;;;5045076;28;20037;-78
2023/06/26 02:35:21;;;;;;;8.80;7.00;;;14.70;99.90;;;;;;5045104;28;20135;-78
2023/06/26 02:37:47;;;;;;;12.43;8.18;;;14.70;99.90;;;;;;5046855;28;20024;-78
2023/06/26 02:40:12;;;;;;;10.77;8.05;;;14.60;99.90;;;;;;5046934;28;21300;-78
2023/06/26 02:42:38;;;;;;;10.63;7.45;;;14.60;99.90;;;;;;5048645;28;21038;-78
2023/06/26 02:45:04;;;;;;;9.52;8.35;;;14.60;99.90;;;;;;5047282;28;20523;-78
2023/06/26 02:47:30;;;;;;;11.45;8.38;;;14.60;99.90;;;;;;5047028;28;20024;-77
2023/06/26 02:49:55;;;;;;;9.30;7.43;;;14.60;99.90;;;;;;5045830;28;20032;-77
2023/06/26 02:52:21;;;;;;;10.43;7.78;;;14.60;99.90;;;;;;5046556;28;20511;-77
2023/06/26 02:54:46;;;;;;;11.20;8.25;;;14.60;99.90;;;;;;5048909;28;20078;-77
2023/06/26 02:57:12;;;;;;;11.23;7.78;;;14.60;99.90;;;;;;5044785;28;20025;-77
2023/06/26 02:59:39;;;;;;;12.10;7.97;;;14.50;99.90;;;;;;5045076;28;20040;-77
2023/06/26 03:02:04;;;;;;;10.38;7.45;;;14.50;99.90;;;;;;5045209;28;20033;-78
2023/06/26 03:04:30;;;;;;;11.80;7.95;;;14.50;99.90;;;;;;5047155;28;20029;-78
2023/06/26 03:06:55;;;;;;;10.07;7.53;;;14.50;99.90;;;;;;5046543;28;20024;-78
2023/06/26 03:09:21;;;;;;;12.02;7.82;;;14.50;99.90;;;;;;5045090;28;20052;-78
2023/06/26 03:11:48;;;;;;;10.88;8.00;;;14.50;99.90;;;;;;5046294;28;20044;-77
2023/06/26 03:14:13;;;;;;;12.20;7.65;;;14.50;99.90;;;;;;5044933;28;20032;-78
2023/06/26 03:16:39;;;;;;;14.40;8.00;;;14.40;99.90;;;;;;5046027;28;20625;-78
2023/06/26 03:19:05;;;;;;;15.00;8.35;;;14.40;99.90;;;;;;5044089;28;20029;-77
2023/06/26 03:21:31;;;;;;;14.35;8.02;;;14.40;99.90;;;;;;5044876;28;20453;-78
2023/06/26 03:23:57;;;;;;;15.68;8.68;;;14.40;99.90;;;;;;5044217;28;20067;-78
2023/06/26 03:26:27;;;;;;;14.77;8.52;;;14.40;99.90;;;;;;5044000;28;20128;-78
2023/06/26 03:28:53;;;;;;;13.85;8.55;;;14.40;99.90;;;;;;5042877;28;20035;-78
2023/06/26 03:31:19;;;;;;;12.52;8.38;;;14.40;99.90;;;;;;5045247;28;20045;-78
2023/06/26 03:33:44;;;;;;;14.05;8.63;;;14.40;99.90;;;;;;5044238;28;20028;-78
2023/06/26 03:36:10;;;;;;;13.73;8.45;;;14.40;99.90;;;;;;5044022;28;20135;-78
2023/06/26 03:38:35;;;;;;;11.48;7.85;;;14.40;99.90;;;;;;5043727;28;20029;-78
2023/06/26 03:41:01;;;;;;;12.43;8.43;;;14.40;99.90;;;;;;5044416;28;20472;-78
2023/06/26 03:43:26;;;;;;;11.23;8.60;;;14.50;99.90;;;;;;5044498;28;20491;-77
2023/06/26 03:45:52;;;;;;;11.02;7.97;;;14.50;99.90;;;;;;5044612;28;20029;-77
2023/06/26 03:48:17;;;;;;;10.23;7.65;;;14.50;99.90;;;;;;5043393;28;20476;-78
2023/06/26 03:50:43;;;;;;;12.60;8.10;;;14.60;99.90;;;;;;5046025;28;20143;-78
2023/06/26 03:53:09;;;;;;;12.50;7.78;;;14.60;99.90;;;;;;5048958;28;20055;-78
2023/06/26 03:55:34;;;;;;;12.55;8.30;;;14.60;99.90;;;;;;5047876;28;20033;-77
2023/06/26 03:58:00;;;;;;;12.10;7.95;;;14.70;99.90;;;;;;5046809;28;20032;-77
2023/06/26 04:00:26;;;;;;;10.40;7.95;;;14.70;99.90;;;;;;5042231;28;20056;-77
2023/06/26 04:02:51;;;;;;;12.48;8.80;;;14.70;99.90;;;;;;5044759;28;20037;-78
2023/06/26 04:05:17;;;;;;;9.55;7.82;;;14.70;99.90;;;;;;5046935;28;20033;-78
2023/06/26 04:07:42;;;;;;;15.70;8.63;;;14.70;99.90;;;;;;5043868;28;20033;-77
2023/06/26 04:10:09;;;;;;;12.57;8.65;;;14.70;99.90;;;;;;5046243;28;20040;-77
2023/06/26 04:12:34;;;;;;;13.98;8.82;;;14.80;99.90;;;;;;5042715;28;20036;-77
2023/06/26 04:15:00;;;;;;;13.20;8.45;;;14.80;99.90;;;;;;5044259;28;20565;-77
2023/06/26 04:17:25;;;;;;;12.85;8.30;;;14.90;99.90;;;;;;5044830;28;20123;-76
2023/06/26 04:19:51;;;;;;;11.13;8.55;;;14.90;99.90;;;;;;5046771;28;20130;-77
2023/06/26 04:22:16;;;;;;;14.23;8.25;;;15.00;99.90;;;;;;5046614;28;20034;-77
2023/06/26 04:24:43;;;;;;;12.80;8.27;;;15.00;99.90;;;;;;5045540;28;20116;-77
2023/06/26 04:27:09;;;;;;;10.82;8.27;;;15.10;99.90;;;;;;5045269;28;20758;-77
2023/06/26 04:29:34;;;;;;;10.27;8.13;;;15.10;99.90;;;;;;5047036;28;20033;-77
2023/06/26 04:32:00;;;;;;;11.93;8.20;;;15.20;99.90;;;;;;5036291;28;20041;-77
2023/06/26 04:34:26;;;;;;;10.40;7.75;;;15.30;99.90;;;;;;5043327;28;20182;-78
2023/06/26 04:36:52;;;;;;;11.13;8.10;;;15.40;99.90;;;;;;5044766;28;20120;-77
2023/06/26 04:39:17;;;;;;;12.73;8.13;;;15.40;99.90;;;;;;5045588;28;20472;-77
2023/06/26 04:41:44;;;;;;;17.55;8.88;;;15.50;99.90;;;;;;5043759;28;20954;-77
2023/06/26 04:44:10;;;;;;;12.40;9.10;;;15.60;99.90;;;;;;5045216;28;20507;-77
2023/06/26 04:46:37;;;;;;;16.08;9.15;;;15.70;99.90;;;;;;5046412;28;20041;-76
2023/06/26 04:49:03;;;;;;;14.43;8.70;;;15.80;99.90;;;;;;5045389;28;20037;-77
2023/06/26 04:51:29;;;;;;;12.05;8.40;;;15.90;99.90;;;;;;5046302;28;20041;-77
2023/06/26 04:53:54;;;;;;;13.60;9.13;;;16.00;99.90;;;;;;5043961;28;20028;-77
2023/06/26 04:56:20;;;;;;;13.90;8.30;;;16.10;99.90;;;;;;5045967;28;20559;-78
2023/06/26 04:58:46;;;;;;;13.88;7.80;;;16.20;99.90;;;;;;5046331;28;20796;-77
2023/06/26 05:01:13;;;;;;;10.95;8.35;;;16.30;99.90;;;;;;5043967;28;20068;-78
2023/06/26 05:03:39;;;;;;;13.93;9.05;;;16.40;99.90;;;;;;5041918;28;20064;-79
2023/06/26 05:06:05;;;;;;;9.60;7.95;;;16.40;99.90;;;;;;5046213;28;20059;-81
2023/06/26 05:08:30;;;;;;;11.10;9.07;;;16.60;99.90;;;;;;5047482;28;20029;-79
2023/06/26 05:10:58;;;;;;;13.88;8.75;;;16.70;99.90;;;;;;5051111;28;20044;-80
2023/06/26 05:13:25;;;;;;;10.45;8.50;;;16.80;99.90;;;;;;5048823;28;20028;-79
2023/06/26 05:15:52;;;;;;;11.85;8.93;;;16.90;99.90;;;;;;5048387;28;20374;-80
2023/06/26 05:18:18;;;;;;;13.70;8.10;;;17.10;99.90;;;;;;5051441;28;20820;-79
2023/06/26 05:20:44;;;;;;;12.07;8.48;;;17.20;99.90;;;;;;5048617;28;20105;-79
2023/06/26 05:23:11;;;;;;;12.00;8.45;;;17.30;99.90;;;;;;5050277;28;20037;-79
2023/06/26 05:25:38;;;;;;;11.52;8.07;;;17.40;99.90;;;;;;5050594;28;20044;-79
2023/06/26 05:28:08;;;;;;;14.63;8.63;;;17.60;99.90;;;;;;5049655;28;20127;-79
2023/06/26 05:30:36;;;;;;;14.02;8.88;;;17.70;99.90;;;;;;5049267;28;20041;-80
2023/06/26 05:33:03;;;;;;;12.65;9.18;;;17.90;99.90;;;;;;5049136;28;20047;-80
2023/06/26 05:35:30;;;;;;;14.32;8.25;;;18.00;99.90;;;;;;5041621;28;20043;-78
2023/06/26 05:37:56;;;;;;;13.50;8.55;;;18.10;99.90;;;;;;5034889;28;20634;-79
2023/06/26 05:40:22;;;;;;;10.13;8.98;;;18.30;99.90;;;;;;5044361;28;20044;-78
2023/06/26 05:42:48;;;;;;;11.73;8.45;;;18.50;99.90;;;;;;5029566;28;20096;-78
2023/06/26 05:45:14;;;;;;;11.18;8.88;;;18.60;99.90;;;;;;5035655;28;20139;-79
2023/06/26 05:47:40;;;;;;;11.73;8.48;;;18.70;99.90;;;;;;5034443;28;20028;-78
2023/06/26 05:50:07;;;;;;;13.15;9.25;;;18.90;99.90;;;;;;5037134;28;20021;-79
2023/06/26 05:52:33;;;;;;;10.77;8.68;;;19.10;99.90;;;;;;5038525;28;20485;-78
2023/06/26 05:54:59;;;;;;;12.52;9.10;;;19.30;99.90;;;;;;5034417;28;20075;-78
2023/06/26 05:57:27;;;;;;;14.45;9.27;;;19.40;99.90;;;;;;5032919;28;20039;-78
2023/06/26 05:59:53;;;;;;;13.55;8.52;;;19.60;99.90;;;;;;5037687;28;20568;-79
2023/06/26 06:02:19;;;;;;;11.63;9.50;;;19.80;99.90;;;;;;5036714;28;20037;-78
2023/06/26 06:04:44;;;;;;;12.18;8.70;;;19.90;99.90;;;;;;5037350;28;20064;-78
2023/06/26 06:07:11;;;;;;;12.70;9.82;;;20.00;99.90;;;;;;5032830;28;20461;-78
2023/06/26 06:09:37;;;;;;;16.00;9.55;;;20.20;99.90;;;;;;5038059;28;20044;-79
2023/06/26 06:12:06;;;;;;;10.25;8.75;;;20.30;99.90;;;;;;5036422;28;20147;-78
2023/06/26 06:14:33;;;;;;;12.45;9.13;;;20.50;99.90;;;;;;5035903;28;20076;-78
2023/06/26 06:16:58;;;;;;;17.13;9.30;;;20.60;99.90;;;;;;5035434;28;20036;-79
2023/06/26 06:19:24;;;;;;;12.93;8.75;;;20.80;99.90;;;;;;5037292;28;20071;-79
2023/06/26 06:21:49;;;;;;;11.73;8.65;;;20.90;99.90;;;;;;5036768;28;20065;-78
2023/06/26 06:24:15;;;;;;;14.30;8.95;;;21.10;99.90;;;;;;5035064;28;20033;-78
2023/06/26 06:26:40;;;;;;;10.68;7.88;;;21.30;99.90;;;;;;5036696;28;20027;-79
2023/06/26 06:29:06;;;;;;;13.18;8.25;;;21.40;99.90;;;;;;5036217;28;20083;-77
2023/06/26 06:31:32;;;;;;;12.02;7.88;;;21.60;99.90;;;;;;5033640;28;20048;-85
2023/06/26 06:33:57;;;;;;;16.15;8.15;;;21.80;99.90;;;;;;5044710;28;20033;-79
2023/06/26 06:36:23;;;;;;;12.68;8.07;;;21.90;99.90;;;;;;5044645;28;20381;-78
2023/06/26 06:38:48;;;;;;;9.75;7.43;;;22.00;99.90;;;;;;5042813;28;20024;-79
2023/06/26 06:41:15;;;;;;;13.45;7.78;;;22.20;99.90;;;;;;5042830;28;21107;-78
2023/06/26 06:43:40;;;;;;;11.13;8.13;;;22.30;99.90;;;;;;5045883;28;20032;-77
2023/06/26 06:46:06;;;;;;;13.45;8.10;;;22.50;99.90;;;;;;5041974;28;20118;-78
2023/06/26 06:48:32;;;;;;;8.38;6.95;;;22.60;99.90;;;;;;5041188;28;20038;-80
2023/06/26 06:50:57;;;;;;;10.52;7.57;;;22.70;99.90;;;;;;5044711;28;20175;-81
2023/06/26 06:53:23;;;;;;;7.65;6.45;;;22.90;99.90;;;;;;5036690;28;20051;-80
2023/06/26 06:55:51;;;;;;;9.45;6.93;;;23.00;99.90;;;;;;5040420;28;20041;-79
2023/06/26 06:58:19;;;;;;;8.88;7.18;;;23.10;99.90;;;;;;5037590;28;20029;-79
2023/06/26 07:00:44;;;;;;;10.27;7.50;;;23.20;99.90;;;;;;5040460;28;20056;-80
2023/06/26 07:03:10;;;;;;;10.50;7.57;;;23.40;99.90;;;;;;5039157;28;20162;-80
2023/06/26 07:05:36;;;;;;;11.18;6.85;;;23.50;99.90;;;;;;5038819;28;20029;-79
2023/06/26 07:08:02;;;;;;;9.48;7.20;;;23.60;99.90;;;;;;5042034;28;20040;-79
2023/06/26 07:10:28;;;;;;;7.97;6.70;;;23.70;99.90;;;;;;5038539;28;20033;-79
2023/06/26 07:12:53;;;;;;;8.02;6.70;;;23.70;99.90;;;;;;5038957;28;20052;-78
2023/06/26 07:15:19;;;;;;;8.65;6.18;;;23.80;99.90;;;;;;5042856;28;20030;-79
2023/06/26 07:17:45;;;;;;;11.00;6.55;;;24.00;99.90;;;;;;5040772;28;20688;-79
2023/06/26 07:20:15;;;;;;;8.27;6.78;;;24.10;99.90;;;;;;5041973;28;20024;-78
2023/06/26 07:22:40;;;;;;;7.63;6.10;;;24.10;99.90;;;;;;5042564;28;20439;-79
2023/06/26 07:25:09;;;;;;;7.38;6.53;;;24.20;99.90;;;;;;5043324;28;20048;-79
2023/06/26 07:27:35;;;;;;;9.00;6.60;;;24.20;99.90;;;;;;5046002;28;20032;-78
2023/06/26 07:30:01;;;;;;;7.50;6.20;;;24.20;99.90;;;;;;5046767;28;20761;-79
2023/06/26 07:32:26;;;;;;;9.52;6.45;;;24.40;99.90;;;;;;5043368;28;20043;-79
2023/06/26 07:34:52;;;;;;;8.48;6.30;;;24.30;99.90;;;;;;5045832;28;20040;-79
2023/06/26 07:37:17;;;;;;;8.85;6.55;;;24.40;99.90;;;;;;5045606;28;20033;-79
2023/06/26 07:39:43;;;;;;;7.47;6.18;;;24.60;99.90;;;;;;5043327;28;20025;-78
2023/06/26 07:42:09;;;;;;;11.20;7.20;;;24.60;99.90;;;;;;5047979;28;20115;-78
2023/06/26 07:44:34;;;;;;;10.68;6.57;;;24.60;99.90;;;;;;5047500;28;20039;-79
2023/06/26 07:47:00;;;;;;;7.93;6.40;;;24.60;99.90;;;;;;5048270;28;20086;-79
2023/06/26 07:49:25;;;;;;;10.38;6.88;;;24.60;99.90;;;;;;5048388;28;20472;-79
2023/06/26 07:51:51;;;;;;;10.13;7.30;;;24.60;99.90;;;;;;5049277;28;20041;-78
2023/06/26 07:54:16;;;;;;;8.82;6.75;;;24.80;99.90;;;;;;5041782;28;20697;-79
2023/06/26 07:57:01;;;;;;;8.43;7.15;;;24.90;99.90;;;;;;5043097;28;20051;-79
2023/06/26 07:59:28;;;;;;;9.45;6.78;;;24.90;99.90;;;;;;5034550;28;20037;-79
2023/06/26 08:01:55;;;;;;;9.80;6.70;;;25.00;99.90;;;;;;5037819;28;20091;-79
2023/06/26 08:04:23;;;;;;;7.68;6.88;;;25.10;99.90;;;;;;5039491;28;20037;-79
2023/06/26 08:06:49;;;;;;;9.32;7.05;;;25.10;99.90;;;;;;5036808;28;20163;-80
2023/06/26 08:09:16;;;;;;;7.38;6.50;;;25.10;99.90;;;;;;5040031;28;20080;-79
2023/06/26 08:11:42;;;;;;;9.43;6.85;;;25.10;99.90;;;;;;5038419;28;20479;-81
2023/06/26 08:14:08;;;;;;;8.70;7.25;;;25.20;99.90;;;;;;5042090;28;20033;-81
2023/06/26 08:16:33;;;;;;;9.80;7.13;;;25.40;99.90;;;;;;5039046;28;20025;-80
2023/06/26 08:18:59;;;;;;;8.48;6.18;;;25.50;99.90;;;;;;5039802;28;20553;-80
2023/06/26 08:21:25;;;;;;;9.27;6.55;;;25.50;99.90;;;;;;5039900;28;20089;-80
2023/06/26 08:23:50;;;;;;;8.95;7.07;;;25.60;99.90;;;;;;5039658;28;20098;-80
2023/06/26 08:26:16;;;;;;;8.40;6.88;;;25.70;99.90;;;;;;5041134;28;20028;-80
2023/06/26 08:28:42;;;;;;;7.63;6.68;;;25.80;99.90;;;;;;5041714;28;20036;-81
2023/06/26 08:31:07;;;;;;;9.93;6.47;;;25.90;99.90;;;;;;5039938;28;20048;-78
2023/06/26 08:33:33;;;;;;;7.82;6.35;;;26.00;99.90;;;;;;5037327;28;20175;-81
2023/06/26 08:35:58;;;;;;;7.93;6.07;;;26.10;99.90;;;;;;5036664;28;20037;-81
2023/06/26 08:38:24;;;;;;;7.82;6.45;;;26.20;99.90;;;;;;5038365;28;20098;-80
2023/06/26 08:40:50;;;;;;;12.32;6.80;;;26.30;99.90;;;;;;5037440;28;20142;-81
2023/06/26 08:43:15;;;;;;;7.03;5.95;;;26.30;99.90;;;;;;5038753;28;20048;-80
2023/06/26 08:45:41;;;;;;;10.23;6.20;;;26.40;99.90;;;;;;5040610;28;20032;-79
2023/06/26 08:48:09;;;;;;;8.50;6.00;;;26.50;99.90;;;;;;5040362;28;20167;-80
2023/06/26 08:53:38;;;;;;;6.50;5.87;;;26.60;99.90;;;;;;4987285;28;20144;-75
2023/06/26 08:56:05;;;;;;;7.18;5.60;;;26.60;99.90;;;;;;4984008;28;20079;-75
2023/06/26 08:58:30;;;;;;;8.50;5.88;;;26.70;99.90;;;;;;4970228;28;20113;-75
2023/06/26 09:00:57;;;;;;;6.20;5.28;;;26.80;99.90;;;;;;4971063;28;20574;-74
2023/06/26 09:03:24;;;;;;;7.18;5.45;;;27.00;99.90;;;;;;4969339;28;20042;-75
2023/06/26 09:05:50;;;;;;;6.43;4.78;;;27.20;99.90;;;;;;4969047;28;20450;-73
2023/06/26 09:08:16;;;;;;;6.70;5.10;;;27.10;99.90;;;;;;4968508;28;20042;-73
2023/06/26 09:10:41;;;;;;;6.75;4.90;;;27.20;99.90;;;;;;4969269;28;20141;-73
2023/06/26 09:13:07;;;;;;;7.35;5.10;;;27.30;99.90;;;;;;4967683;28;20042;-73
2023/06/26 09:15:43;;;;;;;6.20;5.05;;;27.40;99.90;;;;;;4968644;28;20597;-74
2023/06/26 09:18:09;;;;;;;5.75;4.82;;;27.50;99.90;;;;;;4969646;28;20141;-74
2023/06/26 09:20:36;;;;;;;7.07;5.35;;;27.60;99.90;;;;;;4969640;28;20653;-73
2023/06/26 09:23:03;;;;;;;8.20;4.68;;;27.70;99.90;;;;;;4966571;28;20165;-74
2023/06/26 09:25:29;;;;;;;6.20;4.50;;;27.90;99.90;;;;;;4968609;28;20724;-74
2023/06/26 09:27:55;;;;;;;7.55;4.85;;;28.10;99.90;;;;;;4968166;28;20033;-74
2023/06/26 09:30:21;;;;;;;5.88;4.70;;;28.20;99.90;;;;;;4968780;28;20031;-74
2023/06/26 09:32:47;;;;;;;7.05;4.45;;;28.30;99.90;;;;;;4966515;28;20037;-74
2023/06/26 09:35:13;;;;;;;5.25;4.03;;;28.50;99.90;;;;;;4968107;28;20034;-73
2023/06/26 09:37:39;;;;;;;5.35;4.18;;;28.70;99.90;;;;;;4967857;28;20117;-74
2023/06/26 09:40:05;;;;;;;5.65;4.57;;;28.80;99.30;;;;;;4968301;28;20649;-73
2023/06/26 09:42:31;;;;;;;7.55;3.97;;;28.90;99.20;;;;;;4967068;28;21133;-73
2023/06/26 09:44:57;;;;;;;5.15;4.07;;;29.10;99.60;;;;;;4967335;28;20030;-74
2023/06/26 09:47:23;;;;;;;6.93;4.63;;;29.50;99.70;;;;;;4968062;28;20034;-74
2023/06/26 09:49:49;;;;;;;5.07;4.57;;;29.80;97.60;;;;;;4969437;28;20109;-74
2023/06/26 09:52:16;;;;;;;7.65;5.18;;;29.90;97.20;;;;;;4966132;28;20080;-74
2023/06/26 09:54:46;;;;;;;5.32;4.25;;;30.20;96.70;;;;;;4968363;28;20507;-74
2023/06/26 09:57:18;;;;;;;6.95;4.65;;;30.40;96.40;;;;;;4969347;28;20045;-74
2023/06/26 09:59:45;;;;;;;6.13;4.20;;;30.50;95.60;;;;;;4969236;28;20030;-74
2023/06/26 10:02:11;;;;;;;6.50;4.25;;;30.60;96.40;;;;;;4969187;28;20026;-74
2023/06/26 10:04:37;;;;;;;4.55;4.05;;;30.90;94.80;;;;;;4968244;28;20030;-74
2023/06/26 10:07:06;;;;;;;6.78;4.55;;;31.20;93.70;;;;;;4967943;28;20548;-81
2023/06/26 10:09:32;;;;;;;8.90;4.60;;;31.60;92.70;;;;;;4971583;28;20592;-72
2023/06/26 10:12:06;;;;;;;8.85;4.22;;;31.90;92.50;;;;;;4974885;28;21434;-73
2023/06/26 10:14:36;;;;;;;5.38;3.97;;;31.60;92.70;;;;;;4975198;28;20038;-73
2023/06/26 10:17:06;;;;;;;10.93;4.13;;;31.50;91.00;;;;;;4972063;28;20035;-73
2023/06/26 10:19:33;;;;;;;5.50;3.70;;;31.50;92.40;;;;;;4971816;28;20026;-72
2023/06/26 10:22:01;;;;;;;9.10;4.43;;;31.20;90.70;;;;;;4973447;28;20093;-72
2023/06/26 10:24:29;;;;;;;7.75;4.38;;;31.00;90.70;;;;;;4973067;28;20105;-73
2023/06/26 10:27:14;;;;;;;5.00;4.07;;;31.10;91.80;;;;;;4972217;28;20114;-73
2023/06/26 10:29:48;;;;;;;7.15;3.80;;;31.20;91.60;;;;;;4972524;28;20023;-73
2023/06/26 10:32:15;;;;;;;5.55;4.38;;;30.90;89.20;;;;;;4974315;28;20138;-80
2023/06/26 10:34:41;;;;;;;4.57;3.75;;;30.60;89.10;;;;;;4973688;28;20105;-80
2023/06/26 10:37:07;;;;;;;6.00;4.13;;;30.30;91.00;;;;;;4972744;28;20107;-77
2023/06/26 10:39:49;;;;;;;5.22;4.10;;;30.20;90.60;;;;;;4971805;28;20058;-81
2023/06/26 10:42:17;;;;;;;4.85;3.75;;;30.10;91.40;;;;;;4973461;28;20030;-77
2023/06/26 10:44:47;;;;;;;5.35;4.25;;;30.30;91.10;;;;;;4973092;28;20662;-79
2023/06/26 10:47:30;;;;;;;5.75;4.30;;;30.40;91.60;;;;;;4971163;28;20018;-76
2023/06/26 10:49:56;;;;;;;5.10;4.47;;;30.60;92.30;;;;;;4974037;28;20034;-77
2023/06/26 10:52:21;;;;;;;5.13;4.18;;;31.10;92.30;;;;;;4971576;28;20047;-80
2023/06/26 10:54:47;;;;;;;7.28;4.20;;;31.60;90.40;;;;;;4970928;28;20041;-78
2023/06/26 10:57:25;;;;;;;9.60;4.40;;;31.80;88.70;;;;;;4972118;28;20026;-79
2023/06/26 11:00:11;;;;;;;6.25;4.65;;;32.10;89.30;;;;;;4974134;28;20408;-78
2023/06/26 11:02:50;;;;;;;7.18;5.03;;;32.30;90.40;;;;;;4971722;28;20045;-78
2023/06/26 11:05:33;;;;;;;6.88;4.45;;;32.60;87.80;;;;;;4973845;28;20110;-79
2023/06/26 11:08:07;;;;;;;5.80;4.13;;;32.40;84.80;;;;;;4974168;28;20050;-78
2023/06/26 11:10:53;;;;;;;7.18;4.28;;;32.00;86.50;;;;;;4973380;28;20125;-79
2023/06/26 11:13:19;;;;;;;4.78;4.25;;;31.60;87.00;;;;;;4974547;28;20043;-79
2023/06/26 11:15:46;;;;;;;5.22;4.43;;;31.60;89.10;;;;;;4972071;28;20033;-78
2023/06/26 11:18:13;;;;;;;6.93;4.28;;;31.90;90.00;;;;;;4971515;28;20034;-78
2023/06/26 11:20:39;;;;;;;5.72;4.63;;;32.20;89.60;;;;;;4973622;28;20029;-79
2023/06/26 11:23:06;;;;;;;4.72;4.30;;;32.40;85.60;;;;;;4972655;28;20031;-80
2023/06/26 11:25:35;;;;;;;5.38;4.75;;;32.40;87.10;;;;;;4973378;28;20037;-78
2023/06/26 11:28:01;;;;;;;5.97;4.80;;;32.80;84.70;;;;;;4973368;28;20088;-76
2023/06/26 11:30:27;;;;;;;5.63;4.70;;;32.90;83.30;;;;;;4971986;28;20026;-80
2023/06/26 11:32:52;;;;;;;6.15;4.47;;;33.00;82.60;;;;;;4970423;28;20688;-78
2023/06/26 11:35:29;;;;;;;6.70;4.80;;;32.90;82.00;;;;;;4972813;28;20061;-77
2023/06/26 11:38:02;;;;;;;7.70;4.50;;;32.80;79.20;;;;;;4971617;28;20034;-81
2023/06/26 11:40:30;;;;;;;9.50;5.25;;;32.90;84.40;;;;;;4973371;28;20390;-81
2023/06/26 11:42:57;;;;;;;7.45;4.60;;;33.00;83.50;;;;;;4973357;28;20038;-79
2023/06/26 11:45:22;;;;;;;5.32;4.43;;;33.40;85.50;;;;;;4976620;28;20034;-78
2023/06/26 11:47:48;;;;;;;6.55;4.78;;;33.80;81.90;;;;;;4968964;28;21856;-78
2023/06/26 11:50:18;;;;;;;6.35;4.70;;;34.00;79.60;;;;;;4969100;28;20157;-78
2023/06/26 11:52:44;;;;;;;7.97;4.82;;;34.10;79.40;;;;;;4968947;28;20038;-78
2023/06/26 11:55:10;;;;;;;5.75;4.95;;;34.00;80.10;;;;;;4967206;28;20491;-77
2023/06/26 11:57:36;;;;;;;6.38;4.55;;;33.70;76.90;;;;;;4968299;28;20069;-78
2023/06/26 12:00:16;;;;;;;7.90;5.13;;;33.40;79.40;;;;;;4968686;28;20118;-78
2023/06/26 12:02:42;;;;;;;8.68;4.28;;;33.60;78.40;;;;;;4966659;28;20086;-77
2023/06/26 12:05:08;;;;;;;8.32;4.88;;;33.60;79.70;;;;;;4966821;28;20031;-78
2023/06/26 12:07:36;;;;;;;6.82;4.90;;;33.60;78.60;;;;;;4967803;28;20057;-78
2023/06/26 12:10:03;;;;;;;8.00;4.95;;;33.50;76.60;;;;;;4970218;28;20080;-77
2023/06/26 12:12:29;;;;;;;6.30;4.90;;;33.60;78.00;;;;;;4969361;28;20046;-79
2023/06/26 12:14:55;;;;;;;7.00;4.97;;;33.80;73.30;;;;;;4972388;28;20026;-78
2023/06/26 12:17:23;;;;;;;6.93;4.88;;;33.80;75.00;;;;;;4973547;28;20042;-79
2023/06/26 12:19:49;;;;;;;7.68;4.55;;;33.90;76.40;;;;;;4970748;28;20057;-78
2023/06/26 12:22:16;;;;;;;7.70;4.70;;;34.00;76.40;;;;;;4970526;28;20034;-77
2023/06/26 12:24:43;;;;;;;5.65;4.80;;;34.20;76.20;;;;;;4972489;28;20807;-78
2023/06/26 12:27:13;;;;;;;6.95;5.13;;;34.40;77.50;;;;;;4972604;28;20030;-78
2023/06/26 12:29:46;;;;;;;6.63;4.90;;;34.50;74.20;;;;;;4971633;28;20034;-78
2023/06/26 12:32:12;;;;;;;7.07;4.72;;;34.80;76.00;;;;;;4968908;28;20065;-77
2023/06/26 12:34:39;;;;;;;6.50;5.10;;;35.00;73.90;;;;;;4970591;28;20027;-78
2023/06/26 12:37:05;;;;;;;4.85;4.45;;;35.20;68.30;;;;;;4965169;28;20042;-78
2023/06/26 12:39:48;;;;;;;8.77;5.10;;;34.80;70.50;;;;;;4967801;28;20037;-78
2023/06/26 12:42:16;;;;;;;6.20;5.28;;;34.60;69.80;;;;;;4967004;28;20655;-76
2023/06/26 12:44:41;;;;;;;6.97;4.90;;;34.50;72.20;;;;;;4968696;28;20043;-77